createdAt,value
2019-02-22T00:04:41.503Z,39.43
2019-02-22T00:07:22.431Z,43.40
2019-02-22T00:10:03.837Z,48.50
2019-02-22T00:12:44.915Z,42.27
2019-02-22T00:15:26.192Z,51.93
2019-02-22T00:18:06.966Z,57.87
2019-02-22T00:20:48.363Z,52.97
2019-02-22T00:23:29.103Z,79.17
2019-02-22T00:26:11.154Z,40.67
2019-02-22T00:28:52.173Z,62.37
2019-02-22T00:31:33.739Z,58.53
2019-02-22T00:34:14.388Z,57.73
2019-02-22T00:36:43.812Z,52.80
2019-02-22T00:39:32.343Z,46.07
2019-02-22T00:42:20.899Z,43.07
2019-02-22T00:45:02.669Z,50.70
2019-02-22T00:47:44.088Z,58.33
2019-02-22T00:50:25.532Z,68.27
2019-02-22T00:53:06.776Z,49.33
2019-02-22T00:55:47.645Z,121.60
2019-02-22T00:58:29.034Z,91.57
2019-02-22T01:01:10.639Z,56.77
2019-02-22T01:03:51.878Z,57.87
2019-02-22T01:06:33.224Z,61.63
2019-02-22T01:09:14.345Z,69.60
2019-02-22T01:11:55.540Z,50.73
2019-02-22T01:14:36.834Z,41.13
2019-02-22T01:17:18.228Z,57.70
2019-02-22T01:20:00.346Z,52.00
2019-02-22T01:22:41.429Z,59.40
2019-02-22T01:25:22.823Z,54.83
2019-02-22T01:28:03.599Z,50.33
2019-02-22T01:30:44.767Z,58.13
2019-02-22T01:33:25.855Z,42.43
2019-02-22T01:36:07.411Z,40.17
2019-02-22T01:38:48.627Z,55.70
2019-02-22T01:41:30.109Z,48.03
2019-02-22T01:44:11.730Z,43.60
2019-02-22T01:46:53.650Z,42.07
2019-02-22T01:49:34.496Z,39.27
2019-02-22T01:52:15.687Z,59.07
2019-02-22T01:54:56.497Z,38.77
2019-02-22T01:57:37.927Z,57.23
2019-02-22T02:00:07.745Z,73.57
2019-02-22T02:02:56.273Z,58.77
2019-02-22T02:05:37.547Z,71.17
2019-02-22T02:08:18.798Z,81.13
2019-02-22T02:11:00.310Z,60.63
2019-02-22T02:13:41.576Z,52.90
2019-02-22T02:16:23.128Z,78.80
2019-02-22T02:19:04.509Z,61.80
2019-02-22T02:21:45.750Z,59.67
2019-02-22T02:24:27.142Z,67.20
2019-02-22T02:27:08.362Z,69.97
2019-02-22T02:29:49.613Z,58.67
2019-02-22T02:32:30.967Z,48.77
2019-02-22T02:35:12.342Z,74.27
2019-02-22T02:37:53.041Z,47.83
2019-02-22T02:40:33.853Z,80.73
2019-02-22T02:43:15.331Z,76.20
2019-02-22T02:45:56.575Z,85.20
2019-02-22T02:48:37.787Z,79.83
2019-02-22T02:51:07.210Z,91.77
2019-02-22T02:53:55.780Z,120.83
2019-02-22T02:56:36.751Z,68.37
2019-02-22T02:59:19.789Z,50.37
2019-02-22T03:02:01.716Z,92.90
2019-02-22T03:04:43.082Z,81.07
2019-02-22T03:07:43.508Z,73.53
2019-02-22T03:10:25.091Z,103.77
2019-02-22T03:13:06.535Z,88.47
2019-02-22T03:15:46.186Z,65.50
2019-02-22T03:18:34.781Z,65.77
2019-02-22T03:21:15.712Z,99.30
2019-02-22T03:23:56.888Z,53.13
2019-02-22T03:26:38.009Z,112.80
2019-02-22T03:29:21.671Z,55.00
2019-02-22T03:32:02.461Z,93.57
2019-02-22T03:34:43.806Z,72.67
2019-02-22T03:37:25.750Z,46.47
2019-02-22T03:40:06.586Z,75.57
2019-02-22T03:42:48.170Z,64.33
2019-02-22T03:45:31.900Z,61.20
2019-02-22T03:48:14.015Z,58.77
2019-02-22T03:50:55.237Z,72.37
2019-02-22T03:53:40.841Z,63.23
2019-02-22T03:56:22.368Z,82.60
2019-02-22T03:59:03.972Z,67.83
2019-02-22T04:01:45.095Z,41.63
2019-02-22T04:04:26.598Z,60.73
2019-02-22T04:07:07.275Z,66.47
2019-02-22T04:09:48.833Z,75.97
2019-02-22T04:12:30.248Z,67.50
2019-02-22T04:15:11.650Z,54.83
2019-02-22T04:17:53.409Z,111.43
2019-02-22T04:20:34.931Z,89.23
2019-02-22T04:23:16.084Z,73.83
2019-02-22T04:25:56.896Z,64.43
2019-02-22T04:28:37.995Z,90.33
2019-02-22T04:31:19.038Z,99.40
2019-02-22T04:34:00.729Z,77.67
2019-02-22T04:36:41.631Z,95.77
2019-02-22T04:39:22.933Z,121.20
2019-02-22T04:42:04.467Z,151.03
2019-02-22T04:44:45.723Z,86.70
2019-02-22T04:47:27.336Z,87.53
2019-02-22T04:50:08.648Z,72.50
2019-02-22T04:52:49.872Z,72.13
2019-02-22T04:55:30.580Z,74.53
2019-02-22T04:58:12.019Z,86.30
2019-02-22T05:00:53.351Z,54.60
2019-02-22T05:03:34.861Z,59.27
2019-02-22T05:06:16.032Z,55.63
2019-02-22T05:08:57.409Z,62.53
2019-02-22T05:11:38.564Z,55.70
2019-02-22T05:14:19.924Z,77.63
2019-02-22T05:17:01.063Z,54.80
2019-02-22T05:19:42.323Z,61.63
2019-02-22T05:22:22.991Z,59.87
2019-02-22T05:25:04.435Z,59.10
2019-02-22T05:27:45.665Z,74.03
2019-02-22T05:30:27.134Z,55.80
2019-02-22T05:33:08.423Z,49.87
2019-02-22T05:35:49.617Z,71.47
2019-02-22T05:38:30.142Z,60.53
2019-02-22T05:41:11.375Z,49.07
2019-02-22T05:43:51.077Z,61.80
2019-02-22T05:46:32.026Z,58.80
2019-02-22T05:49:13.402Z,50.10
2019-02-22T05:51:55.001Z,53.97
2019-02-22T05:54:36.531Z,62.20
2019-02-22T05:57:17.320Z,57.63
2019-02-22T05:59:58.054Z,63.17
2019-02-22T06:02:39.110Z,57.37
2019-02-22T06:05:19.738Z,57.60
2019-02-22T06:08:01.431Z,56.57
2019-02-22T06:10:42.526Z,60.20
2019-02-22T06:13:24.015Z,85.40
2019-02-22T06:16:05.182Z,58.03
2019-02-22T06:18:46.167Z,58.70
2019-02-22T06:21:27.486Z,53.00
2019-02-22T06:24:09.623Z,68.83
2019-02-22T06:26:50.998Z,69.13
2019-02-22T06:29:32.295Z,71.70
2019-02-22T06:32:13.724Z,56.43
2019-02-22T06:34:55.259Z,61.10
2019-02-22T06:37:36.704Z,73.57
2019-02-22T06:40:18.079Z,67.40
2019-02-22T06:42:59.567Z,67.87
2019-02-22T06:45:40.521Z,65.33
2019-02-22T06:48:21.422Z,56.77
2019-02-22T06:51:02.405Z,68.03
2019-02-22T06:53:44.828Z,71.20
2019-02-22T06:56:26.014Z,65.97
2019-02-22T06:58:56.140Z,67.17
2019-02-22T07:01:44.781Z,98.27
2019-02-22T07:04:14.178Z,106.47
2019-02-22T07:07:02.727Z,71.50
2019-02-22T07:09:43.510Z,89.30
2019-02-22T07:12:43.545Z,66.13
2019-02-22T07:15:24.277Z,65.63
2019-02-22T07:18:05.474Z,66.37
2019-02-22T07:20:47.093Z,51.70
2019-02-22T07:23:28.393Z,67.20
2019-02-22T07:26:09.839Z,92.07
2019-02-22T07:28:50.879Z,53.77
2019-02-22T07:31:32.378Z,74.10
2019-02-22T07:34:13.741Z,53.60
2019-02-22T07:36:54.804Z,79.50
2019-02-22T07:39:36.353Z,69.13
2019-02-22T07:42:17.047Z,65.13
2019-02-22T07:44:58.429Z,64.43
2019-02-22T07:47:39.087Z,59.20
2019-02-22T07:50:20.499Z,79.37
2019-02-22T07:53:02.001Z,56.73
2019-02-22T07:55:43.113Z,65.03
2019-02-22T07:58:24.493Z,62.73
2019-02-22T08:01:05.772Z,57.40
2019-02-22T08:03:47.293Z,73.50
2019-02-22T08:06:28.105Z,67.43
2019-02-22T08:09:09.516Z,63.30
2019-02-22T08:11:50.330Z,69.23
2019-02-22T08:14:30.919Z,62.90
2019-02-22T08:17:11.568Z,67.33
2019-02-22T08:19:52.107Z,105.37
2019-02-22T08:22:32.751Z,72.43
2019-02-22T08:25:12.242Z,102.90
2019-02-22T08:27:54.533Z,79.10
2019-02-22T08:30:35.933Z,77.33
2019-02-22T08:33:17.509Z,69.27
2019-02-22T08:35:58.388Z,92.40
2019-02-22T08:38:38.984Z,71.70
2019-02-22T08:41:20.362Z,64.53
2019-02-22T08:44:01.505Z,77.40
2019-02-22T08:46:42.176Z,72.30
2019-02-22T08:49:28.813Z,78.30
2019-02-22T08:52:09.968Z,69.53
2019-02-22T08:54:50.968Z,74.23
2019-02-22T08:57:30.481Z,69.33
2019-02-22T09:00:11.308Z,66.70
2019-02-22T09:02:52.302Z,61.30
2019-02-22T09:05:33.793Z,61.47
2019-02-22T09:08:15.048Z,64.60
2019-02-22T09:11:00.778Z,60.40
2019-02-22T09:13:46.441Z,58.57
2019-02-22T09:16:27.269Z,61.93
2019-02-22T09:19:09.079Z,55.80
2019-02-22T09:21:51.660Z,53.90
2019-02-22T09:24:33.115Z,65.13
2019-02-22T09:27:13.769Z,53.13
2019-02-22T09:29:43.146Z,65.53
2019-02-22T09:35:44.895Z,52.70
2019-02-22T09:38:26.394Z,52.00
2019-02-22T09:41:06.954Z,62.90
2019-02-22T09:43:55.466Z,72.07
2019-02-22T09:46:30.214Z,53.90
2019-02-22T09:49:10.927Z,59.20
2019-02-22T09:51:51.603Z,69.93
2019-02-22T09:54:33.474Z,58.43
2019-02-22T09:57:14.363Z,62.17
2019-02-22T09:59:55.863Z,65.73
2019-02-22T10:02:38.332Z,61.43
2019-02-22T10:05:19.809Z,67.90
2019-02-22T10:08:02.187Z,72.30
2019-02-22T10:10:43.200Z,69.57
2019-02-22T10:13:25.274Z,68.43
2019-02-22T10:16:06.227Z,61.93
2019-02-22T10:18:48.007Z,58.57
2019-02-22T10:21:29.562Z,59.70
2019-02-22T10:24:10.786Z,58.37
2019-02-22T10:26:52.367Z,62.23
2019-02-22T10:29:31.919Z,59.33
2019-02-22T10:32:12.677Z,63.97
2019-02-22T10:34:53.985Z,63.53
2019-02-22T10:37:35.519Z,63.53
2019-02-22T10:40:17.204Z,64.50
2019-02-22T10:42:58.513Z,64.63
2019-02-22T10:45:39.964Z,64.47
2019-02-22T10:48:20.997Z,68.20
2019-02-22T10:51:02.212Z,68.43
2019-02-22T10:53:43.925Z,79.97
2019-02-22T10:56:25.094Z,84.73
2019-02-22T10:59:05.751Z,90.17
2019-02-22T11:01:47.115Z,89.00
2019-02-22T11:07:32.812Z,94.53
2019-02-22T11:10:14.178Z,90.73
2019-02-22T11:12:55.652Z,95.47
2019-02-22T11:15:35.346Z,87.30
2019-02-22T11:18:24.024Z,84.47
2019-02-22T11:23:52.728Z,89.10
2019-02-22T11:26:22.301Z,86.73
2019-02-22T11:28:52.009Z,81.80
2019-02-22T11:31:40.543Z,85.53
2019-02-22T11:34:09.913Z,79.77
2019-02-22T11:36:39.283Z,82.93
2019-02-22T11:39:28.007Z,82.03
2019-02-22T11:42:09.417Z,78.40
2019-02-22T11:44:50.519Z,78.57
2019-02-22T11:47:20.154Z,80.27
2019-02-22T11:50:27.994Z,79.53
2019-02-22T11:53:16.509Z,80.90
2019-02-22T11:55:57.921Z,87.67
2019-02-22T11:58:27.450Z,78.90
2019-02-22T12:01:16.079Z,82.07
2019-02-22T12:04:04.574Z,79.60
2019-02-22T12:06:46.224Z,78.57
2019-02-22T12:09:27.491Z,77.73
2019-02-22T12:12:09.811Z,69.60
2019-02-22T12:14:52.112Z,70.50
2019-02-22T12:17:32.543Z,71.53
2019-02-22T12:20:15.426Z,73.13
2019-02-22T12:22:56.966Z,74.60
2019-02-22T12:25:38.535Z,71.63
2019-02-22T12:28:20.707Z,66.67
2019-02-22T12:31:01.717Z,64.30
2019-02-22T12:33:43.089Z,58.43
2019-02-22T12:36:24.162Z,62.60
2019-02-22T12:39:05.782Z,63.30
2019-02-22T12:41:47.063Z,61.90
2019-02-22T12:44:16.523Z,65.43
2019-02-22T12:47:05.340Z,62.10
2019-02-22T12:50:12.910Z,61.17
2019-02-22T12:52:54.143Z,63.43
2019-02-22T12:58:37.664Z,68.67
2019-02-22T13:01:18.353Z,65.07
2019-02-22T13:03:59.649Z,61.03
2019-02-22T13:06:41.653Z,64.40
2019-02-22T13:09:22.813Z,72.10
2019-02-22T13:11:52.238Z,76.23
2019-02-22T13:14:40.629Z,76.67
2019-02-22T13:20:35.145Z,76.73
2019-02-22T13:23:16.437Z,72.77
2019-02-22T13:25:57.978Z,72.03
2019-02-22T13:28:38.795Z,69.03
2019-02-22T13:31:29.682Z,68.30
2019-02-22T13:34:02.890Z,71.27
2019-02-22T13:36:42.728Z,69.57
2019-02-22T13:39:31.244Z,62.80
2019-02-22T13:42:19.694Z,68.40
2019-02-22T13:47:42.750Z,70.00
2019-02-22T13:50:24.191Z,69.77
2019-02-22T13:53:05.405Z,72.50
2019-02-22T13:55:47.049Z,77.73
2019-02-22T13:58:29.431Z,78.27
2019-02-22T14:01:11.124Z,75.47
2019-02-22T14:03:52.371Z,75.73
2019-02-22T14:06:33.321Z,75.60
2019-02-22T14:09:15.410Z,78.30
2019-02-22T14:11:56.417Z,74.83
2019-02-22T14:14:37.527Z,78.97
2019-02-22T14:17:18.643Z,76.37
2019-02-22T14:20:00.333Z,76.03
2019-02-22T14:22:43.039Z,78.97
2019-02-22T14:25:23.744Z,79.47
2019-02-22T14:28:05.310Z,81.13
2019-02-22T14:30:46.166Z,75.87
2019-02-22T14:33:27.963Z,77.07
2019-02-22T14:36:08.831Z,72.53
2019-02-22T14:38:50.428Z,78.70
2019-02-22T14:41:32.100Z,75.63
2019-02-22T14:44:13.094Z,75.60
2019-02-22T14:46:54.940Z,78.67
2019-02-22T14:49:36.113Z,75.43
2019-02-22T14:52:17.603Z,75.23
2019-02-22T14:54:59.494Z,76.17
2019-02-22T14:57:40.409Z,75.50
2019-02-22T15:00:21.068Z,78.93
2019-02-22T15:03:01.839Z,75.60
2019-02-22T15:05:43.329Z,82.57
2019-02-22T15:08:24.423Z,75.97
2019-02-22T15:11:05.340Z,75.20
2019-02-22T15:13:47.170Z,73.00
2019-02-22T15:16:46.830Z,72.87
2019-02-22T15:19:29.549Z,81.13
2019-02-22T15:22:10.666Z,76.03
2019-02-22T15:24:53.633Z,73.33
2019-02-22T15:27:36.270Z,65.87
2019-02-22T15:30:19.384Z,76.10
2019-02-22T15:33:00.995Z,73.23
2019-02-22T15:35:43.646Z,71.17
2019-02-22T15:38:26.420Z,70.90
2019-02-22T15:41:18.009Z,71.43
2019-02-22T15:44:18.119Z,74.00
2019-02-22T15:47:11.110Z,73.00
2019-02-22T15:49:45.144Z,68.70
2019-02-22T15:52:26.966Z,66.63
2019-02-22T15:55:08.235Z,62.30
2019-02-22T15:57:49.692Z,70.73
2019-02-22T16:00:31.115Z,68.10
2019-02-22T16:03:11.936Z,68.30
2019-02-22T16:05:57.266Z,67.57
2019-02-22T16:08:37.974Z,66.77
2019-02-22T16:11:18.829Z,68.30
2019-02-22T16:14:11.580Z,66.03
2019-02-22T16:16:52.838Z,62.57
2019-02-22T16:22:43.877Z,69.20
2019-02-22T16:25:24.882Z,69.80
2019-02-22T16:28:06.024Z,70.23
2019-02-22T16:30:47.566Z,68.90
2019-02-22T16:33:28.775Z,72.37
2019-02-22T16:36:08.454Z,64.40
2019-02-22T16:38:56.853Z,73.43
2019-02-22T16:41:37.824Z,65.13
2019-02-22T16:44:18.512Z,69.87
2019-02-22T16:47:00.023Z,69.90
2019-02-22T16:49:41.590Z,72.37
2019-02-22T16:52:22.358Z,75.83
2019-02-22T16:55:03.826Z,73.93
2019-02-22T16:57:45.027Z,77.67
2019-02-22T17:00:26.275Z,75.70
2019-02-22T17:03:07.480Z,71.67
2019-02-22T17:05:48.740Z,83.90
2019-02-22T17:08:30.225Z,79.97
2019-02-22T17:11:11.613Z,81.17
2019-02-22T17:13:53.047Z,87.23
2019-02-22T17:16:45.229Z,85.87
2019-02-22T17:19:17.056Z,78.97
2019-02-22T17:21:57.732Z,84.43
2019-02-22T17:24:39.931Z,84.83
2019-02-22T17:27:20.903Z,92.75
2019-02-22T17:30:02.134Z,83.30
2019-02-22T17:32:43.458Z,84.70
2019-02-22T17:35:24.160Z,93.07
2019-02-22T17:38:05.592Z,89.43
2019-02-22T17:40:46.756Z,90.77
2019-02-22T17:43:27.465Z,97.90
2019-02-22T17:46:08.120Z,90.23
2019-02-22T17:48:49.471Z,95.17
2019-02-22T17:51:30.647Z,90.13
2019-02-22T17:54:11.206Z,93.67
2019-02-22T17:56:52.623Z,89.50
2019-02-22T17:59:33.860Z,93.40
2019-02-22T18:02:15.153Z,92.00
2019-02-22T18:04:44.666Z,85.30
2019-02-22T18:07:33.254Z,73.97
2019-02-22T18:10:21.860Z,79.70
2019-02-22T18:13:10.373Z,89.33
2019-02-22T18:15:51.123Z,85.07
2019-02-22T18:18:32.437Z,91.10
2019-02-22T18:21:13.537Z,93.47
2019-02-22T18:23:54.701Z,89.87
2019-02-22T18:26:37.755Z,95.17
2019-02-22T18:29:20.575Z,91.03
2019-02-22T18:32:01.626Z,92.33
2019-02-22T18:34:42.893Z,87.83
2019-02-22T18:37:24.501Z,93.93
2019-02-22T18:40:07.644Z,93.70
2019-02-22T18:42:48.556Z,98.23
2019-02-22T18:45:29.620Z,93.40
2019-02-22T18:48:11.145Z,100.87
2019-02-22T18:50:40.668Z,102.10
2019-02-22T18:53:29.142Z,100.37
2019-02-22T18:56:09.856Z,104.87
2019-02-22T18:58:50.778Z,96.63
2019-02-22T19:01:20.301Z,102.80
2019-02-22T19:04:08.911Z,102.10
2019-02-22T19:06:51.505Z,99.37
2019-02-22T19:09:32.680Z,98.77
2019-02-22T19:12:13.641Z,102.47
2019-02-22T19:14:55.165Z,93.23
2019-02-22T19:17:35.034Z,98.53
2019-02-22T19:20:23.623Z,98.57
2019-02-22T19:23:12.163Z,98.37
2019-02-22T19:25:53.483Z,100.23
2019-02-22T19:28:35.035Z,100.87
2019-02-22T19:31:16.473Z,100.73
2019-02-22T19:33:57.404Z,98.87
2019-02-22T19:36:38.018Z,94.73
2019-02-22T19:39:19.154Z,91.97
2019-02-22T19:42:00.410Z,94.73
2019-02-22T19:44:41.075Z,91.23
2019-02-22T19:47:22.518Z,99.37
2019-02-22T19:50:04.330Z,97.77
2019-02-22T19:52:45.992Z,95.43
2019-02-22T19:55:27.018Z,94.63
2019-02-22T19:58:08.429Z,89.20
2019-02-22T20:00:50.404Z,96.57
2019-02-22T20:03:39.211Z,89.80
2019-02-22T20:06:20.210Z,85.50
2019-02-22T20:09:01.138Z,88.90
2019-02-22T20:11:42.464Z,91.70
2019-02-22T20:14:26.798Z,87.80
2019-02-22T20:17:08.340Z,88.17
2019-02-22T20:19:37.936Z,89.13
2019-02-22T20:22:26.438Z,86.23
2019-02-22T20:25:15.234Z,77.97
2019-02-22T20:27:57.286Z,77.90
2019-02-22T20:30:38.420Z,74.23
2019-02-22T20:33:19.691Z,69.13
2019-02-22T20:36:01.001Z,69.43
2019-02-22T20:38:43.200Z,68.90
2019-02-22T20:41:24.387Z,66.83
2019-02-22T20:44:06.058Z,66.70
2019-02-22T20:46:48.731Z,68.70
2019-02-22T20:49:29.735Z,68.17
2019-02-22T20:52:09.381Z,87.00
2019-02-22T20:54:49.475Z,72.37
2019-02-22T21:00:41.659Z,69.63
2019-02-22T21:03:23.123Z,80.83
2019-02-22T21:06:04.520Z,76.03
2019-02-22T21:08:48.119Z,77.97
2019-02-22T21:11:29.072Z,77.83
2019-02-22T21:14:10.313Z,74.47
2019-02-22T21:16:51.880Z,75.40
2019-02-22T21:19:33.443Z,75.17
2019-02-22T21:22:14.812Z,67.20
2019-02-22T21:24:55.953Z,65.47
2019-02-22T21:27:37.481Z,71.97
2019-02-22T21:30:18.923Z,81.63
2019-02-22T21:33:00.033Z,67.47
2019-02-22T21:35:41.535Z,71.73
2019-02-22T21:38:23.035Z,68.47
2019-02-22T21:41:04.432Z,65.93
2019-02-22T21:43:45.948Z,65.73
2019-02-22T21:46:28.811Z,65.10
2019-02-22T21:49:09.843Z,69.27
2019-02-22T21:51:50.430Z,66.20
2019-02-22T21:54:31.484Z,63.30
2019-02-22T21:57:18.838Z,67.27
2019-02-22T21:59:59.839Z,65.73
2019-02-22T22:02:45.381Z,64.23
2019-02-22T22:05:26.113Z,59.10
2019-02-22T22:08:07.576Z,58.87
2019-02-22T22:10:48.489Z,61.60
2019-02-22T22:13:29.737Z,60.97
2019-02-22T22:16:10.862Z,60.33
2019-02-22T22:18:51.533Z,63.07
2019-02-22T22:21:32.920Z,61.63
2019-02-22T22:24:14.154Z,58.17
2019-02-22T22:26:54.837Z,55.63
2019-02-22T22:29:35.910Z,52.00
2019-02-22T22:32:20.567Z,47.60
2019-02-22T22:35:01.525Z,43.03
2019-02-22T22:37:42.571Z,40.27
2019-02-22T22:40:24.896Z,32.40
2019-02-22T22:43:05.994Z,30.80
2019-02-22T22:45:46.546Z,27.70
2019-02-22T22:48:27.208Z,24.93
2019-02-22T22:51:08.552Z,23.70
2019-02-22T22:53:49.844Z,25.43
2019-02-22T22:56:31.261Z,24.63
2019-02-22T22:59:12.165Z,22.60
2019-02-22T23:01:53.526Z,25.43
2019-02-22T23:04:35.167Z,26.00
2019-02-22T23:07:16.076Z,27.87
2019-02-22T23:09:57.292Z,27.60
2019-02-22T23:12:40.251Z,27.43
2019-02-22T23:15:21.310Z,25.87
2019-02-22T23:18:02.458Z,26.13
2019-02-22T23:20:42.171Z,27.07
2019-02-22T23:23:30.701Z,25.10
2019-02-22T23:26:11.637Z,21.20
2019-02-22T23:28:52.867Z,18.00
2019-02-22T23:31:34.349Z,10.53
2019-02-22T23:34:15.430Z,6.53
2019-02-22T23:36:56.179Z,3.67
2019-02-22T23:39:37.510Z,3.07
2019-02-22T23:42:19.313Z,3.30
2019-02-22T23:45:12.961Z,3.03
2019-02-22T23:47:54.443Z,4.07
2019-02-22T23:50:35.665Z,3.63
2019-02-22T23:53:17.167Z,3.80
2019-02-22T23:55:57.728Z,3.17
2019-02-22T23:58:38.425Z,4.20
